Legend — WDF9316 — position and weather

sailwx.info

Track history (hours):
 
Tides and Currents Weather Stations Pressure Air Temp Water Temp Dewpoint Dewpoint Depression Visibility Wind Speed Wind Dir Waves Ship Positions

Legend

Owner: Crowley Maritime, Seattle, WA. More information available from US FCC via Universal Licensing System and Coast Guard Vessel Documentation Center.

Last reported at 2016-Sep-14 17:34 UTC. Time now 2016-Sep-25 00:19 UTC.
Position N 25°35' W 080°01'.
Warning: this ship's position is 10 days out of date.

Length 212 m; draft 11.6 m.

Type: Towing. MMSI: 366709000.

Date/timePositionNaut miles runAvg speedWind from/ knotsBaromVisibWave heightAir tempDewpointWater temp
2016-Sep-14 17:34N 25°35' W 080°01'7 6.9
2016-Sep-14 16:34N 25°42' W 080°01'22 7.2
2016-Sep-14 13:33N 26°03' W 080°01'7 6.0
2016-Sep-14 12:28N 26°06' W 080°07'0 0.0
2016-Sep-14 10:28N 26°06' W 080°07'0 0.0
2016-Sep-14 09:31N 26°06' W 080°07'0 0.0
2016-Sep-14 08:31N 26°06' W 080°07'0 0.0
2016-Sep-14 07:31N 26°06' W 080°07'0 0.0
2016-Sep-14 06:31N 26°06' W 080°07'0 0.0
2016-Sep-14 03:31N 26°06' W 080°07'0 0.0
2016-Sep-13 22:28N 26°06' W 080°07'0 0.0
2016-Sep-13 20:28N 26°06' W 080°07'0 0.0
2016-Sep-13 18:31N 26°06' W 080°07'0 0.0
2016-Sep-13 17:31N 26°06' W 080°07'0 0.0
2016-Sep-13 16:28N 26°06' W 080°07'0 0.0
2016-Sep-13 11:04N 26°06' W 080°07'0 0.0
2016-Sep-13 09:25N 26°06' W 080°07'0 0.0
2016-Sep-13 07:25N 26°06' W 080°07'0 0.0
2016-Sep-13 06:28N 26°06' W 080°07'0 0.0
2016-Sep-13 04:31N 26°06' W 080°07'1 0.3
2016-Sep-13 02:33N 26°06' W 080°07'17 5.6
2016-Sep-12 23:34N 25°50' W 079°59'  
2016-Sep-07 01:24N 29°57' W 090°23'  
Track history (hours):
 
Tides and Currents Weather Stations Pressure Air Temp Water Temp Dewpoint Dewpoint Depression Visibility Wind Speed Wind Dir Waves Ship Positions

Legend

Owner: Crowley Maritime, Seattle, WA. More information available from US FCC via Universal Licensing System and Coast Guard Vessel Documentation Center.

Last reported at 2016-Sep-14 17:34 UTC. Time now 2016-Sep-25 00:19 UTC.
Position N 25°35' W 080°01'.
Warning: this ship's position is 10 days out of date.

Length 212 m; draft 11.6 m.

Type: Towing. MMSI: 366709000.

Date/timePositionNaut miles runAvg speedWind from/ knotsBaromVisibWave heightAir tempDewpointWater temp
2016-Sep-14 17:34N 25°35' W 080°01'7 6.9
2016-Sep-14 16:34N 25°42' W 080°01'22 7.2
2016-Sep-14 13:33N 26°03' W 080°01'7 6.0
2016-Sep-14 12:28N 26°06' W 080°07'0 0.0
2016-Sep-14 10:28N 26°06' W 080°07'0 0.0
2016-Sep-14 09:31N 26°06' W 080°07'0 0.0
2016-Sep-14 08:31N 26°06' W 080°07'0 0.0
2016-Sep-14 07:31N 26°06' W 080°07'0 0.0
2016-Sep-14 06:31N 26°06' W 080°07'0 0.0
2016-Sep-14 03:31N 26°06' W 080°07'0 0.0
2016-Sep-13 22:28N 26°06' W 080°07'0 0.0
2016-Sep-13 20:28N 26°06' W 080°07'0 0.0
2016-Sep-13 18:31N 26°06' W 080°07'0 0.0
2016-Sep-13 17:31N 26°06' W 080°07'0 0.0
2016-Sep-13 16:28N 26°06' W 080°07'0 0.0
2016-Sep-13 11:04N 26°06' W 080°07'0 0.0
2016-Sep-13 09:25N 26°06' W 080°07'0 0.0
2016-Sep-13 07:25N 26°06' W 080°07'0 0.0
2016-Sep-13 06:28N 26°06' W 080°07'0 0.0
2016-Sep-13 04:31N 26°06' W 080°07'1 0.3
2016-Sep-13 02:33N 26°06' W 080°07'17 5.6
2016-Sep-12 23:34N 25°50' W 079°59'  
2016-Sep-07 01:24N 29°57' W 090°23'  

Dump ship's entire track history